createdAt,value
2018-06-21T00:00:04.857Z,2.30
2018-06-21T00:02:33.172Z,3.10
2018-06-21T00:05:02.449Z,2.70
2018-06-21T00:07:30.731Z,2.93
2018-06-21T00:09:59.848Z,3.00
2018-06-21T00:12:28.204Z,2.70
2018-06-21T00:14:56.871Z,2.93
2018-06-21T00:17:25.169Z,2.80
2018-06-21T00:19:53.448Z,2.90
2018-06-21T00:22:22.413Z,2.60
2018-06-21T00:24:50.909Z,2.80
2018-06-21T00:27:22.080Z,3.13
2018-06-21T00:29:51.407Z,2.50
2018-06-21T00:32:19.945Z,3.70
2018-06-21T00:34:49.372Z,3.13
2018-06-21T00:37:17.696Z,3.47
2018-06-21T00:39:46.356Z,3.00
2018-06-21T00:42:14.613Z,2.50
2018-06-21T00:44:44.015Z,2.73
2018-06-21T00:47:12.307Z,2.97
2018-06-21T00:49:40.587Z,2.30
2018-06-21T00:52:08.877Z,2.57
2018-06-21T00:54:37.151Z,2.37
2018-06-21T00:57:05.700Z,2.37
2018-06-21T00:59:33.964Z,2.40
2018-06-21T01:02:02.810Z,2.50
2018-06-21T01:04:31.099Z,2.70
2018-06-21T01:07:00.132Z,2.23
2018-06-21T01:09:29.548Z,2.47
2018-06-21T01:11:57.814Z,2.67
2018-06-21T01:14:26.115Z,2.70
2018-06-21T01:16:54.415Z,1.77
2018-06-21T01:19:22.686Z,1.97
2018-06-21T01:21:50.930Z,2.37
2018-06-21T01:24:19.187Z,2.33
2018-06-21T01:26:47.970Z,2.57
2018-06-21T01:29:17.096Z,2.10
2018-06-21T01:31:45.337Z,2.23
2018-06-21T01:34:14.195Z,2.40
2018-06-21T01:36:42.534Z,2.10
2018-06-21T01:39:11.073Z,2.10
2018-06-21T01:41:40.632Z,1.97
2018-06-21T01:44:09.142Z,3.13
2018-06-21T01:46:37.383Z,2.33
2018-06-21T01:49:06.436Z,2.67
2018-06-21T01:51:35.511Z,2.60
2018-06-21T01:54:03.777Z,2.20
2018-06-21T01:56:32.984Z,2.20
2018-06-21T01:59:01.291Z,2.60
2018-06-21T02:01:29.540Z,2.53
2018-06-21T02:03:57.835Z,2.93
2018-06-21T02:06:26.216Z,2.10
2018-06-21T02:08:55.642Z,2.47
2018-06-21T02:11:23.900Z,2.43
2018-06-21T02:13:53.167Z,2.77
2018-06-21T02:16:21.407Z,2.67
2018-06-21T02:18:49.702Z,2.40
2018-06-21T02:21:18.027Z,2.40
2018-06-21T02:23:46.278Z,2.70
2018-06-21T02:26:14.611Z,2.60
2018-06-21T02:28:42.891Z,2.40
2018-06-21T02:31:11.113Z,2.60
2018-06-21T02:33:39.350Z,3.03
2018-06-21T02:36:07.622Z,3.20
2018-06-21T02:38:35.869Z,2.77
2018-06-21T02:41:04.079Z,2.50
2018-06-21T02:43:32.273Z,2.77
2018-06-21T02:46:01.627Z,3.20
2018-06-21T02:48:29.915Z,3.33
2018-06-21T02:50:58.183Z,3.10
2018-06-21T02:53:26.936Z,2.80
2018-06-21T02:55:55.531Z,3.40
2018-06-21T02:58:23.823Z,3.37
2018-06-21T03:00:52.079Z,3.37
2018-06-21T03:03:20.339Z,3.00
2018-06-21T03:05:48.610Z,3.17
2018-06-21T03:08:17.833Z,3.23
2018-06-21T03:10:46.096Z,3.20
2018-06-21T03:13:14.683Z,3.00
2018-06-21T03:15:42.953Z,3.17
2018-06-21T03:18:11.247Z,3.37
2018-06-21T03:20:39.862Z,3.17
2018-06-21T03:23:09.075Z,3.17
2018-06-21T03:25:37.658Z,3.90
2018-06-21T03:28:06.595Z,3.27
2018-06-21T03:30:35.061Z,3.90
2018-06-21T03:33:04.273Z,3.30
2018-06-21T03:35:32.535Z,3.97
2018-06-21T03:38:00.906Z,3.00
2018-06-21T03:40:29.511Z,2.60
2018-06-21T03:42:57.972Z,3.37
2018-06-21T03:45:26.194Z,3.43
2018-06-21T03:47:54.710Z,3.63
2018-06-21T03:50:22.997Z,3.60
2018-06-21T03:52:51.259Z,3.40
2018-06-21T03:55:20.977Z,4.30
2018-06-21T03:57:49.235Z,3.40
2018-06-21T04:00:17.816Z,2.93
2018-06-21T04:02:45.767Z,3.57
2018-06-21T04:05:14.027Z,3.50
2018-06-21T04:07:42.264Z,4.23
2018-06-21T04:10:10.535Z,3.63
2018-06-21T04:12:38.739Z,4.07
2018-06-21T04:15:07.503Z,4.43
2018-06-21T04:17:35.780Z,3.80
2018-06-21T04:20:04.096Z,3.83
2018-06-21T04:22:32.381Z,4.00
2018-06-21T04:25:01.603Z,3.80
2018-06-21T04:27:31.043Z,4.50
2018-06-21T04:29:59.256Z,3.90
2018-06-21T04:32:27.544Z,4.30
2018-06-21T04:34:58.975Z,4.10
2018-06-21T04:37:27.790Z,4.43
2018-06-21T04:39:56.404Z,4.30
2018-06-21T04:42:24.636Z,3.80
2018-06-21T04:44:53.459Z,4.33
2018-06-21T04:47:21.688Z,4.10
2018-06-21T04:49:49.981Z,4.57
2018-06-21T04:52:18.744Z,4.07
2018-06-21T04:54:47.421Z,3.87
2018-06-21T04:57:15.643Z,4.40
2018-06-21T04:59:44.591Z,4.60
2018-06-21T05:02:12.883Z,4.10
2018-06-21T05:04:41.186Z,5.23
2018-06-21T05:07:09.704Z,4.43
2018-06-21T05:09:38.955Z,4.50
2018-06-21T05:12:07.194Z,4.53
2018-06-21T05:14:36.474Z,4.13
2018-06-21T05:17:05.564Z,4.33
2018-06-21T05:19:33.902Z,5.27
2018-06-21T05:22:02.118Z,4.67
2018-06-21T05:24:30.370Z,4.97
2018-06-21T05:26:58.652Z,4.87
2018-06-21T05:29:26.848Z,5.13
2018-06-21T05:31:55.245Z,4.57
2018-06-21T05:34:23.874Z,4.33
2018-06-21T05:36:53.010Z,4.80
2018-06-21T05:39:21.498Z,4.57
2018-06-21T05:41:49.726Z,5.33
2018-06-21T05:44:17.990Z,4.87
2018-06-21T05:46:47.326Z,5.53
2018-06-21T05:49:15.554Z,4.17
2018-06-21T05:51:43.751Z,4.37
2018-06-21T05:54:12.974Z,5.00
2018-06-21T05:56:41.173Z,4.00
2018-06-21T05:59:09.373Z,3.90
2018-06-21T06:01:38.198Z,4.50
2018-06-21T06:04:07.981Z,4.73
2018-06-21T06:06:36.489Z,4.50
2018-06-21T06:09:07.970Z,4.43
2018-06-21T06:11:36.173Z,4.07
2018-06-21T06:14:05.169Z,4.53
2018-06-21T06:16:34.125Z,3.90
2018-06-21T06:19:02.434Z,4.03
2018-06-21T06:21:31.638Z,3.50
2018-06-21T06:23:59.887Z,3.60
2018-06-21T06:26:28.074Z,3.43
2018-06-21T06:28:56.339Z,3.90
2018-06-21T06:31:24.573Z,4.23
2018-06-21T06:33:52.745Z,3.93
2018-06-21T06:36:21.247Z,3.90
2018-06-21T06:38:49.981Z,3.40
2018-06-21T06:41:18.586Z,3.57
2018-06-21T06:43:46.766Z,3.17
2018-06-21T06:46:15.038Z,3.60
2018-06-21T06:48:43.502Z,3.47
2018-06-21T06:51:11.746Z,3.17
2018-06-21T06:53:39.930Z,3.10
2018-06-21T06:56:08.162Z,2.73
2018-06-21T06:58:36.382Z,2.83
2018-06-21T07:01:04.554Z,2.80
2018-06-21T07:03:32.777Z,2.90
2018-06-21T07:06:01.014Z,2.97
2018-06-21T07:08:29.262Z,2.50
2018-06-21T07:10:57.562Z,2.40
2018-06-21T07:13:26.331Z,2.20
2018-06-21T07:15:54.833Z,2.63
2018-06-21T07:18:23.018Z,2.60
2018-06-21T07:20:51.199Z,2.30
2018-06-21T07:23:19.458Z,2.53
2018-06-21T07:25:47.703Z,2.47
2018-06-21T07:28:15.902Z,3.00
2018-06-21T07:30:44.091Z,2.37
2018-06-21T07:33:12.678Z,2.27
2018-06-21T07:35:41.773Z,2.30
2018-06-21T07:38:09.965Z,2.03
2018-06-21T07:40:38.369Z,2.33
2018-06-21T07:43:06.546Z,2.60
2018-06-21T07:45:34.755Z,2.50
2018-06-21T07:48:04.738Z,3.13
2018-06-21T07:50:32.950Z,3.03
2018-06-21T07:53:01.526Z,2.63
2018-06-21T07:55:29.829Z,2.03
2018-06-21T07:57:58.126Z,2.27
2018-06-21T08:00:26.374Z,2.10
2018-06-21T08:02:54.677Z,2.50
2018-06-21T08:05:22.846Z,2.90
2018-06-21T08:07:50.810Z,2.40
2018-06-21T08:10:19.011Z,2.20
2018-06-21T08:12:47.225Z,2.13
2018-06-21T08:15:15.442Z,2.00
2018-06-21T08:17:44.050Z,2.40
2018-06-21T08:20:12.999Z,2.33
2018-06-21T08:22:41.873Z,2.63
2018-06-21T08:25:10.723Z,2.40
2018-06-21T08:27:39.536Z,2.60
2018-06-21T08:30:07.766Z,2.13
2018-06-21T08:32:35.958Z,3.60
2018-06-21T08:35:04.614Z,2.10
2018-06-21T08:37:32.786Z,3.20
2018-06-21T08:40:01.946Z,2.43
2018-06-21T08:42:30.157Z,2.43
2018-06-21T08:44:58.332Z,2.30
2018-06-21T08:47:26.539Z,2.57
2018-06-21T08:49:55.167Z,2.17
2018-06-21T08:52:23.387Z,1.73
2018-06-21T08:54:51.645Z,2.10
2018-06-21T08:57:20.139Z,2.43
2018-06-21T08:59:49.333Z,2.23
2018-06-21T09:02:17.573Z,2.00
2018-06-21T09:04:47.393Z,2.13
2018-06-21T09:07:15.554Z,2.27
2018-06-21T09:09:43.896Z,2.20
2018-06-21T09:12:12.690Z,2.60
2018-06-21T09:14:40.957Z,3.07
2018-06-21T09:17:09.177Z,3.30
2018-06-21T09:19:37.669Z,3.23
2018-06-21T09:22:05.894Z,4.90
2018-06-21T09:24:34.125Z,5.00
2018-06-21T09:27:02.933Z,5.10
2018-06-21T09:29:31.408Z,6.53
2018-06-21T09:32:00.602Z,6.13
2018-06-21T09:34:29.012Z,5.50
2018-06-21T09:36:58.158Z,4.50
2018-06-21T09:39:31.816Z,4.17
2018-06-21T09:42:05.558Z,3.80
2018-06-21T09:44:35.153Z,3.80
2018-06-21T09:47:09.306Z,4.60
2018-06-21T09:49:37.542Z,5.30
2018-06-21T09:52:06.597Z,6.80
2018-06-21T09:54:34.902Z,5.97
2018-06-21T09:57:03.891Z,5.90
2018-06-21T09:59:32.138Z,6.93
2018-06-21T10:02:00.867Z,7.10
2018-06-21T10:04:29.065Z,7.40
2018-06-21T10:06:57.596Z,7.70
2018-06-21T10:09:27.399Z,7.93
2018-06-21T10:11:55.963Z,7.57
2018-06-21T10:14:24.162Z,8.10
2018-06-21T10:16:52.618Z,8.10
2018-06-21T10:19:20.893Z,8.10
2018-06-21T10:21:49.152Z,7.90
2018-06-21T10:24:17.353Z,7.30
2018-06-21T10:26:45.590Z,7.60
2018-06-21T10:29:14.670Z,7.57
2018-06-21T10:31:43.906Z,7.87
2018-06-21T10:34:12.155Z,8.20
2018-06-21T10:36:40.389Z,7.97
2018-06-21T10:39:10.096Z,7.03
2018-06-21T10:41:38.314Z,7.67
2018-06-21T10:44:06.498Z,7.13
2018-06-21T10:46:34.669Z,7.00
2018-06-21T10:49:03.297Z,6.23
2018-06-21T10:51:31.517Z,5.70
2018-06-21T10:53:59.748Z,6.80
2018-06-21T10:56:28.250Z,6.80
2018-06-21T10:58:56.461Z,5.90
2018-06-21T11:01:25.562Z,6.60
2018-06-21T11:03:53.804Z,6.27
2018-06-21T11:06:22.063Z,5.90
2018-06-21T11:08:50.546Z,6.63
2018-06-21T11:11:18.805Z,6.23
2018-06-21T11:13:47.045Z,6.03
2018-06-21T11:16:15.305Z,6.53
2018-06-21T11:18:43.479Z,6.60
2018-06-21T11:21:11.664Z,6.47
2018-06-21T11:23:39.870Z,6.30
2018-06-21T11:26:08.093Z,6.20
2018-06-21T11:28:36.302Z,5.60
2018-06-21T11:31:04.546Z,5.10
2018-06-21T11:33:32.730Z,5.37
2018-06-21T11:36:00.977Z,4.67
2018-06-21T11:38:29.193Z,4.90
2018-06-21T11:40:57.674Z,4.17
2018-06-21T11:43:26.389Z,3.90
2018-06-21T11:45:55.518Z,3.50
2018-06-21T11:48:23.750Z,3.23
2018-06-21T11:50:52.262Z,3.20
2018-06-21T11:53:21.815Z,2.83
2018-06-21T11:55:50.041Z,2.93
2018-06-21T11:58:19.182Z,2.30
2018-06-21T12:00:47.393Z,2.33
2018-06-21T12:03:16.200Z,1.90
2018-06-21T12:05:44.409Z,2.00
2018-06-21T12:08:12.625Z,3.30
2018-06-21T12:10:40.838Z,1.93
2018-06-21T12:13:09.009Z,1.83
2018-06-21T12:15:38.710Z,1.70
2018-06-21T12:18:06.963Z,1.30
2018-06-21T12:20:35.178Z,2.13
2018-06-21T12:23:04.180Z,1.77
2018-06-21T12:25:32.423Z,1.17
2018-06-21T12:28:01.789Z,1.47
2018-06-21T12:30:30.007Z,1.70
2018-06-21T12:32:58.221Z,1.43
2018-06-21T12:35:26.458Z,1.80
2018-06-21T12:37:54.645Z,1.67
2018-06-21T12:40:22.914Z,1.73
2018-06-21T12:42:51.113Z,1.63
2018-06-21T12:45:19.338Z,1.77
2018-06-21T12:47:47.550Z,1.30
2018-06-21T12:50:15.814Z,1.60
2018-06-21T12:52:44.075Z,1.30
2018-06-21T12:55:12.252Z,1.40
2018-06-21T12:57:41.014Z,2.40
2018-06-21T13:00:10.501Z,1.40
2018-06-21T13:02:38.750Z,1.30
2018-06-21T13:05:06.950Z,1.53
2018-06-21T13:07:35.151Z,1.53
2018-06-21T13:10:14.736Z,1.30
2018-06-21T13:12:58.674Z,1.80
2018-06-21T13:15:27.445Z,1.60
2018-06-21T13:17:55.613Z,1.77
2018-06-21T13:20:23.789Z,1.97
2018-06-21T13:22:52.566Z,1.60
2018-06-21T13:25:22.728Z,1.40
2018-06-21T13:27:50.958Z,1.27
2018-06-21T13:30:20.933Z,1.23
2018-06-21T13:32:50.217Z,1.60
2018-06-21T13:35:19.544Z,1.63
2018-06-21T13:37:47.793Z,1.70
2018-06-21T13:40:16.054Z,1.40
2018-06-21T13:42:46.352Z,1.23
2018-06-21T13:45:14.594Z,1.43
2018-06-21T13:47:42.811Z,1.70
2018-06-21T13:50:11.005Z,1.50
2018-06-21T13:52:39.260Z,1.93
2018-06-21T13:55:08.270Z,1.60
2018-06-21T13:57:36.501Z,1.80
2018-06-21T14:00:05.237Z,1.57
2018-06-21T14:02:33.418Z,1.73
2018-06-21T14:05:03.587Z,1.33
2018-06-21T14:07:31.824Z,1.80
2018-06-21T14:10:01.478Z,1.67
2018-06-21T14:12:30.040Z,1.17
2018-06-21T14:14:58.785Z,1.20
2018-06-21T14:17:27.506Z,1.20
2018-06-21T14:19:55.714Z,0.90
2018-06-21T14:22:23.938Z,1.10
2018-06-21T14:24:53.206Z,1.20
2018-06-21T14:27:21.402Z,0.80
2018-06-21T14:29:49.637Z,1.13
2018-06-21T14:32:17.903Z,2.53
2018-06-21T14:34:46.082Z,0.93
2018-06-21T14:37:14.413Z,1.40
2018-06-21T14:39:43.297Z,1.20
2018-06-21T14:42:11.504Z,1.33
2018-06-21T14:44:39.997Z,1.00
2018-06-21T14:47:09.050Z,1.10
2018-06-21T14:49:37.845Z,1.73
2018-06-21T14:52:07.559Z,1.20
2018-06-21T14:54:35.738Z,1.03
2018-06-21T14:57:03.984Z,1.40
2018-06-21T14:59:32.154Z,1.40
2018-06-21T15:02:00.402Z,1.27
2018-06-21T15:04:28.686Z,0.90
2018-06-21T15:06:56.890Z,1.17
2018-06-21T15:09:25.098Z,1.03
2018-06-21T15:11:53.329Z,1.37
2018-06-21T15:14:23.059Z,0.90
2018-06-21T15:16:51.769Z,1.27
2018-06-21T15:19:20.043Z,0.90
2018-06-21T15:21:48.285Z,0.90
2018-06-21T15:24:16.510Z,0.67
2018-06-21T15:26:44.718Z,0.90
2018-06-21T15:29:12.922Z,0.80
2018-06-21T15:31:41.384Z,0.90
2018-06-21T15:34:09.561Z,1.03
2018-06-21T15:36:38.729Z,1.00
2018-06-21T15:39:20.539Z,1.03
2018-06-21T15:41:48.745Z,1.03
2018-06-21T15:44:18.287Z,0.97
2018-06-21T15:46:46.513Z,0.93
2018-06-21T15:49:15.405Z,0.90
2018-06-21T15:51:44.377Z,0.80
2018-06-21T15:54:12.623Z,1.20
2018-06-21T15:56:40.838Z,0.80
2018-06-21T15:59:09.466Z,0.93
2018-06-21T16:01:38.210Z,0.87
2018-06-21T16:04:06.991Z,0.93
2018-06-21T16:06:36.221Z,0.90
2018-06-21T16:09:07.997Z,0.70
2018-06-21T16:11:36.241Z,0.93
2018-06-21T16:14:04.503Z,1.00
2018-06-21T16:16:33.070Z,0.90
2018-06-21T16:19:01.313Z,0.70
2018-06-21T16:21:29.562Z,0.97
2018-06-21T16:23:57.912Z,0.80
2018-06-21T16:26:26.150Z,1.30
2018-06-21T16:28:54.377Z,1.03
2018-06-21T16:31:24.726Z,1.20
2018-06-21T16:33:53.434Z,0.90
2018-06-21T16:36:21.673Z,0.87
2018-06-21T16:38:50.802Z,0.80
2018-06-21T16:41:18.977Z,0.90
2018-06-21T16:43:47.193Z,1.00
2018-06-21T16:46:16.215Z,1.33
2018-06-21T16:48:44.482Z,1.07
2018-06-21T16:51:12.703Z,1.00
2018-06-21T16:53:40.914Z,1.10
2018-06-21T16:56:09.169Z,0.80
2018-06-21T16:58:37.354Z,1.10
2018-06-21T17:01:05.986Z,1.30
2018-06-21T17:03:34.201Z,1.20
2018-06-21T17:06:02.689Z,0.80
2018-06-21T17:08:31.177Z,1.03
2018-06-21T17:10:59.429Z,1.00
2018-06-21T17:13:28.237Z,1.80
2018-06-21T17:15:56.958Z,1.30
2018-06-21T17:18:25.195Z,1.30
2018-06-21T17:20:53.459Z,0.77
2018-06-21T17:23:21.429Z,1.03
2018-06-21T17:25:49.598Z,1.40
2018-06-21T17:28:17.800Z,1.10
2018-06-21T17:30:46.006Z,1.03
2018-06-21T17:33:14.614Z,1.17
2018-06-21T17:35:42.837Z,1.20
2018-06-21T17:38:11.138Z,1.37
2018-06-21T17:40:39.528Z,1.30
2018-06-21T17:43:07.729Z,1.03
2018-06-21T17:45:35.697Z,0.90
2018-06-21T17:48:04.231Z,2.23
2018-06-21T17:50:32.496Z,1.30
2018-06-21T17:53:02.565Z,1.50
2018-06-21T17:55:31.374Z,1.20
2018-06-21T17:58:00.621Z,1.40
2018-06-21T18:00:28.833Z,1.27
2018-06-21T18:02:56.787Z,1.50
2018-06-21T18:05:26.401Z,1.43
2018-06-21T18:07:55.592Z,1.50
2018-06-21T18:10:24.178Z,2.20
2018-06-21T18:12:52.432Z,1.33
2018-06-21T18:15:20.690Z,1.10
2018-06-21T18:17:49.900Z,1.13
2018-06-21T18:20:18.186Z,1.30
2018-06-21T18:22:46.749Z,1.37
2018-06-21T18:25:14.922Z,1.00
2018-06-21T18:27:43.202Z,1.23
2018-06-21T18:30:12.495Z,1.10
2018-06-21T18:32:41.376Z,1.70
2018-06-21T18:35:09.610Z,1.17
2018-06-21T18:37:37.825Z,1.13
2018-06-21T18:40:06.096Z,1.37
2018-06-21T18:42:34.326Z,1.50
2018-06-21T18:45:02.649Z,1.57
2018-06-21T18:47:31.752Z,1.70
2018-06-21T18:49:59.937Z,1.00
2018-06-21T18:52:28.152Z,1.50
2018-06-21T18:54:56.360Z,1.70
2018-06-21T18:57:24.601Z,1.90
2018-06-21T18:59:52.869Z,1.20
2018-06-21T19:02:21.101Z,1.30
2018-06-21T19:04:49.330Z,1.40
2018-06-21T19:07:22.917Z,1.70
2018-06-21T19:09:56.447Z,1.83
2018-06-21T19:12:24.677Z,1.70
2018-06-21T19:14:52.958Z,1.40
2018-06-21T19:17:21.229Z,1.70
2018-06-21T19:19:49.468Z,1.40
2018-06-21T19:22:17.684Z,1.63
2018-06-21T19:24:45.891Z,1.60
2018-06-21T19:27:14.401Z,1.27
2018-06-21T19:29:42.634Z,1.40
2018-06-21T19:32:10.793Z,1.23
2018-06-21T19:34:39.033Z,1.60
2018-06-21T19:37:07.633Z,1.77
2018-06-21T19:39:35.870Z,1.23
2018-06-21T19:42:04.102Z,1.13
2018-06-21T19:44:32.328Z,1.27
2018-06-21T19:47:01.858Z,1.60
2018-06-21T19:49:30.575Z,1.37
2018-06-21T19:51:58.810Z,1.67
2018-06-21T19:54:27.017Z,1.40
2018-06-21T19:56:55.270Z,1.80
2018-06-21T19:59:25.353Z,1.30
2018-06-21T20:01:53.593Z,1.40
2018-06-21T20:04:21.837Z,1.87
2018-06-21T20:06:50.217Z,1.17
2018-06-21T20:09:18.421Z,1.17
2018-06-21T20:11:47.246Z,1.60
2018-06-21T20:14:15.453Z,1.50
2018-06-21T20:16:43.665Z,1.20
2018-06-21T20:19:15.198Z,1.50
2018-06-21T20:21:44.133Z,1.63
2018-06-21T20:24:12.417Z,1.47
2018-06-21T20:26:40.690Z,1.20
2018-06-21T20:29:14.917Z,1.67
2018-06-21T20:31:43.144Z,1.40
2018-06-21T20:34:11.366Z,1.37
2018-06-21T20:36:39.605Z,2.47
2018-06-21T20:39:09.061Z,1.20
2018-06-21T20:41:38.550Z,1.27
2018-06-21T20:44:07.681Z,1.10
2018-06-21T20:46:36.253Z,1.60
2018-06-21T20:49:04.489Z,1.13
2018-06-21T20:51:33.113Z,1.10
2018-06-21T20:54:01.682Z,1.43
2018-06-21T20:56:29.933Z,1.63
2018-06-21T20:58:58.565Z,1.43
2018-06-21T21:01:27.758Z,1.50
2018-06-21T21:03:55.912Z,1.30
2018-06-21T21:06:24.097Z,1.37
2018-06-21T21:08:52.281Z,1.67
2018-06-21T21:11:20.777Z,1.40
2018-06-21T21:13:48.972Z,1.47
2018-06-21T21:16:17.229Z,1.40
2018-06-21T21:18:45.373Z,1.30
2018-06-21T21:21:13.604Z,1.50
2018-06-21T21:23:42.372Z,1.30
2018-06-21T21:26:10.586Z,1.40
2018-06-21T21:28:39.689Z,1.60
2018-06-21T21:31:07.905Z,1.37
2018-06-21T21:33:37.074Z,1.60
2018-06-21T21:36:05.288Z,1.50
2018-06-21T21:38:33.473Z,1.30
2018-06-21T21:41:03.134Z,1.50
2018-06-21T21:43:31.301Z,1.23
2018-06-21T21:45:59.949Z,1.53
2018-06-21T21:48:29.017Z,1.80
2018-06-21T21:50:57.269Z,1.87
2018-06-21T21:53:25.499Z,1.53
2018-06-21T21:55:53.718Z,1.10
2018-06-21T21:58:21.878Z,1.40
2018-06-21T22:00:54.185Z,1.27
2018-06-21T22:03:22.627Z,1.60
2018-06-21T22:05:51.228Z,1.30
2018-06-21T22:08:19.464Z,1.87
2018-06-21T22:10:48.733Z,1.77
2018-06-21T22:13:18.021Z,2.20
2018-06-21T22:15:45.893Z,2.00
2018-06-21T22:18:14.412Z,1.57
2018-06-21T22:20:42.340Z,1.43
2018-06-21T22:23:10.697Z,2.30
2018-06-21T22:25:38.906Z,1.67
2018-06-21T22:28:07.182Z,1.57
2018-06-21T22:30:35.397Z,1.20
2018-06-21T22:33:03.615Z,1.40
2018-06-21T22:35:33.497Z,2.73
2018-06-21T22:38:01.682Z,1.60
2018-06-21T22:40:30.633Z,1.80
2018-06-21T22:42:59.052Z,1.60
2018-06-21T22:45:27.225Z,1.60
2018-06-21T22:47:55.899Z,2.47
2018-06-21T22:50:24.959Z,1.50
2018-06-21T22:52:54.118Z,1.30
2018-06-21T22:55:22.397Z,1.70
2018-06-21T22:57:50.577Z,1.90
2018-06-21T23:00:20.106Z,1.60
2018-06-21T23:02:48.329Z,1.70
2018-06-21T23:05:16.524Z,2.00
2018-06-21T23:07:44.738Z,1.30
2018-06-21T23:10:13.277Z,1.37
2018-06-21T23:12:41.511Z,1.23
2018-06-21T23:15:10.698Z,1.50
2018-06-21T23:17:38.890Z,1.43
2018-06-21T23:20:08.556Z,1.40
2018-06-21T23:22:36.777Z,1.50
2018-06-21T23:25:06.821Z,1.10
2018-06-21T23:27:35.022Z,1.70
2018-06-21T23:30:03.465Z,1.57
2018-06-21T23:32:31.637Z,1.90
2018-06-21T23:35:00.328Z,2.00
2018-06-21T23:37:28.561Z,2.87
2018-06-21T23:39:57.293Z,1.70
2018-06-21T23:42:25.509Z,2.00
2018-06-21T23:44:53.719Z,1.70
2018-06-21T23:47:22.637Z,1.77
2018-06-21T23:49:51.368Z,2.30
2018-06-21T23:52:19.329Z,1.90
2018-06-21T23:54:47.554Z,2.33
2018-06-21T23:57:15.794Z,2.60
2018-06-21T23:59:44.536Z,2.10
